SARFSARC

Guest
Details From SARF - FORMOSA
To SARC - CORRIENTES
Flight Number -
Tags generated
Created
Modified
Stats Distance 80 nm / 148 km
Max Altitude 0 ft / 0 m
Waypoints 3
Social Downloads 0
Likes 0
Share VATSIM

Download

Looking for another format? Having issues loading an existing format? Contact us
Advertisement - Login to hide

Notes

Basic altitude profile: - Ascent Rate: 2500ft/min - Ascent Speed: 250kts - Cruise Altitude: 35000ft - Cruise Speed: 420kts - Descent Rate: 1500ft/min - Descent Speed: 250kts Options: - Use NATs: yes - Use PACOTS: yes - Use low airways: yes - Use high airways: yes

Route

SARF FSA SARC

ID Type Via Altitude Latitude Longitude Leg Dist Tot Dist Heading (true) Name
O SARF APT - 0 ft / 0 m -26.21272˚ -58.22811˚ - 0 nm - FORMOSA
FSA VOR - 0 ft / 0 m -26.21028˚ -58.22472˚ 0 nm 0 nm 51° / 51° FORMOSA VOR-DME
O SARC APT - 0 ft / 0 m -27.44550˚ -58.76186˚ 79 nm 79 nm 201° / 201° CORRIENTES

Altitude Profile

Advertisement - Login to hide

SARF

Details ICAO SARF (FMA)
Name FORMOSA
Region Argentina
Timezone America/Argentina/Cordoba (UTC-3.0)
Stats Elevation 194 ft / 59 m (AMSL)
Location -26.212722° -58.228111°
Runways 1
Magnetic Variation 13.314° W

METAR

SARF 250900Z 20002KT CAVOK 09/09 Q1020

Decode

TAF

TAF SARF 250500Z 2506/2606 14005KT CAVOK TX23/2518Z TN08/2510Z PROB30 2508/2511 4000 BR NSC

Decode

Departure Runways

ID Width Length Bearing (true) Bearing (mag) Surface Threshold Offset Overrun Length
04 100 ft / 30 m 5,922 ft / 1,805 m 24.88° 38.19° Asphalt 0 ft / 0 m 65 ft / 20 m
22 100 ft / 30 m 5,922 ft / 1,805 m 204.88° 218.19° Asphalt 0 ft / 0 m 65 ft / 20 m

SARC

Details ICAO SARC (CNQ)
Name CORRIENTES
Region Argentina
Timezone America/Argentina/Cordoba (UTC-3.0)
Stats Elevation 203 ft / 62 m (AMSL)
Location -27.445503° -58.761862°
Runways 1
Magnetic Variation 12.379° W

METAR

SARC 250900Z 14004KT CAVOK 08/07 Q1020

Decode

TAF

Not found

Destination Runways

ID Width Length Bearing (true) Bearing (mag) Surface Threshold Offset Overrun Length
02 148 ft / 45 m 6,880 ft / 2,097 m 7.82° 20.20° Concrete 0 ft / 0 m 0 ft / 0 m
20 148 ft / 45 m 6,880 ft / 2,097 m 187.82° 200.20° Concrete 0 ft / 0 m 0 ft / 0 m

Approach Navaids

Runway Type Ident Frequency Range Bearing (true) Bearing (mag) Slope Elevation
20 Localiser CR 109.70 MHz 18 nm / 33 km 187.73° 200.11° - 203 ft / 62 m (AMSL)
20 Glidescope CR 109.70 MHz 10 nm / 19 km 187.82° 200.20° 3.00° 203 ft / 62 m (AMSL)